createdAt,value
2017-06-24T00:00:27.864Z,1008.14
2017-06-24T00:01:38.108Z,1008.14
2017-06-24T00:02:48.355Z,1008.16
2017-06-24T00:03:58.285Z,1008.14
2017-06-24T00:05:08.523Z,1008.1
2017-06-24T00:06:18.701Z,1008.08
2017-06-24T00:07:28.941Z,1008.09
2017-06-24T00:08:39.192Z,1008.08
2017-06-24T00:09:49.435Z,1008.04
2017-06-24T00:10:59.362Z,1008.1
2017-06-24T00:12:09.558Z,1008.06
2017-06-24T00:13:19.796Z,1008.04
2017-06-24T00:14:30.040Z,1008.07
2017-06-24T00:15:40.278Z,1008.08
2017-06-24T00:16:50.523Z,1008.1
2017-06-24T00:18:01.017Z,1008.12
2017-06-24T00:19:11.262Z,1008.14
2017-06-24T00:20:21.232Z,1008.13
2017-06-24T00:21:31.483Z,1008.11
2017-06-24T00:22:41.407Z,1008.12
2017-06-24T00:23:51.590Z,1008.15
2017-06-24T00:25:01.538Z,1008.27
2017-06-24T00:26:11.483Z,1008.32
2017-06-24T00:27:21.722Z,1008.3
2017-06-24T00:28:31.962Z,1008.3
2017-06-24T00:29:42.455Z,1008.3
2017-06-24T00:30:52.704Z,1008.31
2017-06-24T00:32:02.944Z,1008.31
2017-06-24T00:33:12.566Z,1008.29
2017-06-24T00:34:22.801Z,1008.27
2017-06-24T00:35:33.301Z,1008.25
2017-06-24T00:36:43.242Z,1008.29
2017-06-24T00:37:53.479Z,1008.25
2017-06-24T00:39:03.713Z,1008.21
2017-06-24T00:40:13.952Z,1008.18
2017-06-24T00:41:24.438Z,1008.15
2017-06-24T00:42:34.692Z,1008.12
2017-06-24T00:43:44.622Z,1008.13
2017-06-24T00:44:54.871Z,1008.14
2017-06-24T00:46:05.111Z,1008.16
2017-06-24T00:47:15.595Z,1008.13
2017-06-24T00:48:25.829Z,1008.16
2017-06-24T00:49:36.079Z,1008.15
2017-06-24T00:50:46.327Z,1008.17
2017-06-24T00:51:56.564Z,1008.28
2017-06-24T00:53:07.067Z,1008.31
2017-06-24T00:54:17.316Z,1008.29
2017-06-24T00:55:27.245Z,1008.25
2017-06-24T00:56:37.169Z,1008.19
2017-06-24T00:57:47.408Z,1008.21
2017-06-24T00:58:57.982Z,1008.2
2017-06-24T01:00:08.222Z,1008.17
2017-06-24T01:01:18.148Z,1008.15
2017-06-24T01:02:28.383Z,1008.15
2017-06-24T01:03:38.635Z,1008.16
2017-06-24T01:04:49.125Z,1008.14
2017-06-24T01:05:58.769Z,1008.14
2017-06-24T01:07:09.012Z,1008.13
2017-06-24T01:08:19.255Z,1008.13
2017-06-24T01:09:29.489Z,1008.09
2017-06-24T01:10:40.009Z,1008.09
2017-06-24T01:11:50.255Z,1008.13
2017-06-24T01:13:00.184Z,1008.1
2017-06-24T01:14:10.106Z,1008.13
2017-06-24T01:15:19.717Z,1008.1
2017-06-24T01:16:30.204Z,1008.13
2017-06-24T01:17:40.143Z,1008.12
2017-06-24T01:18:50.388Z,1008.09
2017-06-24T01:20:00.627Z,1008.05
2017-06-24T01:21:10.862Z,1008.04
2017-06-24T01:22:21.344Z,1008.07
2017-06-24T01:23:31.274Z,1008.07
2017-06-24T01:24:41.518Z,1008.03
2017-06-24T01:25:51.761Z,1008
2017-06-24T01:27:02.012Z,1008.02
2017-06-24T01:28:12.190Z,1008.04
2017-06-24T01:29:22.433Z,1008.08
2017-06-24T01:30:32.668Z,1008.09
2017-06-24T01:31:42.911Z,1008.09
2017-06-24T01:32:52.843Z,1008.1
2017-06-24T01:34:03.025Z,1008.07
2017-06-24T01:35:13.260Z,1008.02
2017-06-24T01:36:23.184Z,1008.06
2017-06-24T01:37:32.810Z,1008.11
2017-06-24T01:38:42.439Z,1008.1
2017-06-24T01:39:52.630Z,1008.06
2017-06-24T01:41:02.865Z,1008.09
2017-06-24T01:42:13.095Z,1008.02
2017-06-24T01:43:22.719Z,1008.01
2017-06-24T01:44:32.658Z,1008.05
2017-06-24T01:45:43.155Z,1007.99
2017-06-24T01:46:52.779Z,1008.04
2017-06-24T01:48:02.704Z,1008.04
2017-06-24T01:49:12.938Z,1007.99
2017-06-24T01:50:22.870Z,1008.01
2017-06-24T01:51:33.364Z,1007.97
2017-06-24T01:52:43.601Z,1008
2017-06-24T01:53:53.529Z,1008.01
2017-06-24T01:55:03.775Z,1007.96
2017-06-24T01:56:13.706Z,1007.95
2017-06-24T01:57:24.207Z,1007.97
2017-06-24T01:58:34.447Z,1007.99
2017-06-24T01:59:44.375Z,1007.99
2017-06-24T02:00:54.614Z,1007.93
2017-06-24T02:02:04.876Z,1008
2017-06-24T02:03:15.363Z,1007.99
2017-06-24T02:04:25.300Z,1008.02
2017-06-24T02:05:35.539Z,1007.96
2017-06-24T02:06:45.783Z,1008
2017-06-24T02:07:56.024Z,1008
2017-06-24T02:09:06.521Z,1007.98
2017-06-24T02:10:16.462Z,1007.96
2017-06-24T02:11:26.696Z,1007.95
2017-06-24T02:12:36.934Z,1007.94
2017-06-24T02:13:47.168Z,1007.98
2017-06-24T02:14:57.699Z,1008.04
2017-06-24T02:16:07.315Z,1008.01
2017-06-24T02:17:17.544Z,1007.95
2017-06-24T02:18:27.477Z,1007.95
2017-06-24T02:19:37.712Z,1008.04
2017-06-24T02:20:47.590Z,1008.02
2017-06-24T02:21:57.529Z,1008
2017-06-24T02:23:07.784Z,1008
2017-06-24T02:24:18.018Z,1008.03
2017-06-24T02:25:28.256Z,1007.98
2017-06-24T02:26:38.741Z,1007.95
2017-06-24T02:27:48.669Z,1007.96
2017-06-24T02:28:58.916Z,1007.93
2017-06-24T02:30:08.840Z,1007.93
2017-06-24T02:31:18.779Z,1007.88
2017-06-24T02:32:28.657Z,1007.92
2017-06-24T02:33:38.891Z,1007.89
2017-06-24T02:34:48.837Z,1007.92
2017-06-24T02:35:58.767Z,1007.95
2017-06-24T02:37:09.025Z,1007.88
2017-06-24T02:38:19.533Z,1007.87
2017-06-24T02:39:29.768Z,1007.89
2017-06-24T02:40:39.997Z,1007.84
2017-06-24T02:41:50.235Z,1007.85
2017-06-24T02:43:00.489Z,1007.89
2017-06-24T02:44:10.973Z,1007.88
2017-06-24T02:45:21.229Z,1007.98
2017-06-24T02:46:31.466Z,1007.9
2017-06-24T02:47:41.710Z,1007.89
2017-06-24T02:48:51.941Z,1007.9
2017-06-24T02:50:02.134Z,1007.87
2017-06-24T02:51:12.367Z,1007.9
2017-06-24T02:52:22.605Z,1007.79
2017-06-24T02:53:32.844Z,1007.87
2017-06-24T02:54:42.773Z,1007.79
2017-06-24T02:55:52.950Z,1007.85
2017-06-24T02:57:02.567Z,1007.96
2017-06-24T02:58:12.812Z,1007.98
2017-06-24T02:59:23.044Z,1007.89
2017-06-24T03:00:32.979Z,1007.97
2017-06-24T03:01:43.466Z,1007.92
2017-06-24T03:02:53.697Z,1007.89
2017-06-24T03:04:03.926Z,1007.94
2017-06-24T03:05:14.181Z,1007.9
2017-06-24T03:06:24.421Z,1007.88
2017-06-24T03:07:34.911Z,1007.84
2017-06-24T03:08:44.840Z,1007.82
2017-06-24T03:09:55.088Z,1007.89
2017-06-24T03:11:05.324Z,1007.85
2017-06-24T03:12:15.561Z,1008.02
2017-06-24T03:13:26.055Z,1007.83
2017-06-24T03:14:36.293Z,1007.88
2017-06-24T03:15:46.225Z,1007.96
2017-06-24T03:16:56.469Z,1007.84
2017-06-24T03:18:06.713Z,1007.84
2017-06-24T03:19:17.256Z,1007.83
2017-06-24T03:20:27.493Z,1007.9
2017-06-24T03:21:37.744Z,1007.91
2017-06-24T03:22:47.992Z,1007.89
2017-06-24T03:23:58.228Z,1007.85
2017-06-24T03:25:08.716Z,1007.87
2017-06-24T03:26:18.956Z,1007.83
2017-06-24T03:27:29.189Z,1007.88
2017-06-24T03:28:39.419Z,1008
2017-06-24T03:29:49.658Z,1007.92
2017-06-24T03:30:59.888Z,1007.87
2017-06-24T03:32:09.810Z,1007.83
2017-06-24T03:33:20.051Z,1007.84
2017-06-24T03:34:30.317Z,1007.82
2017-06-24T03:35:40.244Z,1007.86
2017-06-24T03:36:50.747Z,1007.9
2017-06-24T03:38:00.677Z,1007.85
2017-06-24T03:39:10.907Z,1008.01
2017-06-24T03:40:20.834Z,1007.88
2017-06-24T03:41:31.083Z,1007.88
2017-06-24T03:42:41.585Z,1007.96
2017-06-24T03:43:51.205Z,1007.92
2017-06-24T03:45:01.138Z,1007.99
2017-06-24T03:46:11.382Z,1007.86
2017-06-24T03:47:21.621Z,1007.87
2017-06-24T03:48:32.121Z,1007.94
2017-06-24T03:49:42.385Z,1007.88
2017-06-24T03:50:52.629Z,1007.86
2017-06-24T03:52:02.865Z,1007.84
2017-06-24T03:53:12.786Z,1007.85
2017-06-24T03:54:23.277Z,1007.78
2017-06-24T03:55:33.521Z,1007.81
2017-06-24T03:56:43.458Z,1007.85
2017-06-24T03:57:53.399Z,1007.81
2017-06-24T03:59:03.638Z,1007.88
2017-06-24T04:00:14.141Z,1007.79
2017-06-24T04:01:24.381Z,1007.83
2017-06-24T04:02:34.309Z,1007.9
2017-06-24T04:03:44.231Z,1007.9
2017-06-24T04:04:54.480Z,1007.83
2017-06-24T04:06:04.974Z,1007.87
2017-06-24T04:07:15.205Z,1007.89
2017-06-24T04:08:25.450Z,1007.87
2017-06-24T04:09:35.697Z,1007.92
2017-06-24T04:10:45.932Z,1007.94
2017-06-24T04:11:56.107Z,1008.05
2017-06-24T04:13:06.038Z,1008.02
2017-06-24T04:14:16.277Z,1008.07
2017-06-24T04:15:26.511Z,1008.22
2017-06-24T04:16:36.759Z,1007.99
2017-06-24T04:17:47.247Z,1007.95
2017-06-24T04:18:57.489Z,1007.99
2017-06-24T04:20:07.416Z,1007.98
2017-06-24T04:21:17.649Z,1008.03
2017-06-24T04:22:27.893Z,1008.05
2017-06-24T04:23:38.434Z,1008.09
2017-06-24T04:24:48.674Z,1008.11
2017-06-24T04:25:58.907Z,1008.03
2017-06-24T04:27:09.144Z,1008.07
2017-06-24T04:28:19.076Z,1008.03
2017-06-24T04:29:29.557Z,1008.06
2017-06-24T04:30:39.786Z,1008.12
2017-06-24T04:31:50.031Z,1008.09
2017-06-24T04:33:00.268Z,1008.11
2017-06-24T04:34:10.514Z,1008.08
2017-06-24T04:35:21.008Z,1008.17
2017-06-24T04:36:31.246Z,1008.1
2017-06-24T04:37:41.481Z,1008.05
2017-06-24T04:38:51.723Z,1008.13
2017-06-24T04:40:01.968Z,1008.09
2017-06-24T04:41:12.500Z,1008.09
2017-06-24T04:42:22.736Z,1008.02
2017-06-24T04:43:32.978Z,1008.04
2017-06-24T04:44:43.219Z,1008
2017-06-24T04:45:53.459Z,1008.04
2017-06-24T04:47:04.006Z,1008.05
2017-06-24T04:48:13.945Z,1008.16
2017-06-24T04:49:24.186Z,1008.15
2017-06-24T04:50:34.424Z,1008.1
2017-06-24T04:51:44.662Z,1008.11
2017-06-24T04:52:55.160Z,1008.09
2017-06-24T04:54:05.399Z,1008.1
2017-06-24T04:55:15.335Z,1008.22
2017-06-24T04:56:25.568Z,1008.04
2017-06-24T04:57:35.496Z,1008.24
2017-06-24T04:58:45.984Z,1008.05
2017-06-24T04:59:56.229Z,1008.06
2017-06-24T05:01:06.468Z,1008.04
2017-06-24T05:02:16.417Z,1008.04
2017-06-24T05:03:26.367Z,1008.03
2017-06-24T05:04:36.849Z,1008.07
2017-06-24T05:05:47.087Z,1007.99
2017-06-24T05:06:57.030Z,1008.06
2017-06-24T05:08:07.276Z,1007.98
2017-06-24T05:09:17.509Z,1007.99
2017-06-24T05:10:27.993Z,1008.01
2017-06-24T05:11:37.925Z,1008.09
2017-06-24T05:12:48.181Z,1008
2017-06-24T05:13:58.121Z,1007.97
2017-06-24T05:15:08.346Z,1007.95
2017-06-24T05:16:18.528Z,1007.94
2017-06-24T05:17:28.772Z,1008.05
2017-06-24T05:18:39.028Z,1007.93
2017-06-24T05:19:49.265Z,1007.95
2017-06-24T05:20:59.508Z,1007.98
2017-06-24T05:22:10.010Z,1008.01
2017-06-24T05:23:20.248Z,1007.99
2017-06-24T05:24:30.494Z,1008.02
2017-06-24T05:25:40.433Z,1008.04
2017-06-24T05:26:50.668Z,1007.9
2017-06-24T05:28:00.851Z,1007.89
2017-06-24T05:29:10.788Z,1007.89
2017-06-24T05:30:21.025Z,1007.92
2017-06-24T05:31:31.269Z,1007.91
2017-06-24T05:32:41.504Z,1007.86
2017-06-24T05:33:51.996Z,1007.93
2017-06-24T05:35:01.933Z,1007.95
2017-06-24T05:36:12.165Z,1007.92
2017-06-24T05:37:22.440Z,1007.93
2017-06-24T05:38:32.373Z,1007.94
2017-06-24T05:39:42.868Z,1007.92
2017-06-24T05:40:53.104Z,1007.99
2017-06-24T05:42:03.341Z,1008.01
2017-06-24T05:43:13.575Z,1008.02
2017-06-24T05:44:23.829Z,1007.97
2017-06-24T05:45:34.055Z,1008.02
2017-06-24T05:46:44.291Z,1007.97
2017-06-24T05:47:54.234Z,1007.9
2017-06-24T05:49:04.475Z,1007.88
2017-06-24T05:50:14.726Z,1007.96
2017-06-24T05:51:25.217Z,1007.94
2017-06-24T05:52:35.463Z,1007.91
2017-06-24T05:53:45.703Z,1007.93
2017-06-24T05:54:55.945Z,1007.94
2017-06-24T05:56:06.175Z,1007.92
2017-06-24T05:57:16.696Z,1007.9
2017-06-24T05:58:26.936Z,1007.95
2017-06-24T05:59:36.872Z,1007.92
2017-06-24T06:00:47.108Z,1007.9
2017-06-24T06:01:57.353Z,1007.87
2017-06-24T06:03:07.840Z,1007.85
2017-06-24T06:04:17.770Z,1007.83
2017-06-24T06:05:28.014Z,1007.87
2017-06-24T06:06:38.259Z,1007.86
2017-06-24T06:07:48.491Z,1007.83
2017-06-24T06:08:58.980Z,1007.87
2017-06-24T06:10:09.230Z,1007.91
2017-06-24T06:11:19.466Z,1007.87
2017-06-24T06:12:29.717Z,1007.97
2017-06-24T06:13:39.658Z,1007.85
2017-06-24T06:14:50.153Z,1007.83
2017-06-24T06:16:00.079Z,1007.84
2017-06-24T06:17:10.319Z,1007.85
2017-06-24T06:18:20.561Z,1007.84
2017-06-24T06:19:30.815Z,1007.89
2017-06-24T06:20:41.307Z,1007.92
2017-06-24T06:21:51.562Z,1007.95
2017-06-24T06:23:01.802Z,1007.94
2017-06-24T06:24:11.741Z,1007.91
2017-06-24T06:25:21.390Z,1007.97
2017-06-24T06:26:31.880Z,1007.92
2017-06-24T06:27:42.119Z,1007.93
2017-06-24T06:28:52.376Z,1007.93
2017-06-24T06:30:02.618Z,1007.92
2017-06-24T06:31:12.560Z,1007.86
2017-06-24T06:32:23.047Z,1007.88
2017-06-24T06:33:33.298Z,1007.84
2017-06-24T06:34:43.534Z,1007.85
2017-06-24T06:35:53.462Z,1007.84
2017-06-24T06:37:03.711Z,1007.84
2017-06-24T06:38:13.895Z,1007.86
2017-06-24T06:39:24.135Z,1007.83
2017-06-24T06:40:34.374Z,1007.92
2017-06-24T06:41:44.301Z,1007.9
2017-06-24T06:42:54.568Z,1007.92
2017-06-24T06:44:05.059Z,1007.88
2017-06-24T06:45:14.989Z,1007.94
2017-06-24T06:46:25.246Z,1007.88
2017-06-24T06:47:35.182Z,1007.89
2017-06-24T06:48:45.440Z,1007.84
2017-06-24T06:49:55.629Z,1007.77
2017-06-24T06:51:05.865Z,1007.78
2017-06-24T06:52:15.490Z,1007.75
2017-06-24T06:53:25.727Z,1007.75
2017-06-24T06:54:35.971Z,1007.76
2017-06-24T06:55:46.470Z,1007.76
2017-06-24T06:56:56.405Z,1007.79
2017-06-24T06:58:06.644Z,1007.76
2017-06-24T06:59:16.879Z,1007.8
2017-06-24T07:00:27.129Z,1007.75
2017-06-24T07:01:37.612Z,1007.74
2017-06-24T07:02:47.247Z,1007.81
2017-06-24T07:03:57.187Z,1007.77
2017-06-24T07:05:07.466Z,1007.82
2017-06-24T07:06:17.716Z,1007.72
2017-06-24T07:07:27.958Z,1007.73
2017-06-24T07:08:38.206Z,1007.7
2017-06-24T07:09:48.442Z,1007.67
2017-06-24T07:10:58.690Z,1007.72
2017-06-24T07:12:08.358Z,1007.68
2017-06-24T07:13:18.860Z,1007.72
2017-06-24T07:14:29.095Z,1007.76
2017-06-24T07:15:39.344Z,1007.79
2017-06-24T07:16:49.582Z,1007.79
2017-06-24T07:17:59.839Z,1007.74
2017-06-24T07:19:10.331Z,1007.79
2017-06-24T07:20:20.565Z,1007.84
2017-06-24T07:21:30.514Z,1007.88
2017-06-24T07:22:40.131Z,1007.85
2017-06-24T07:23:50.399Z,1007.82
2017-06-24T07:25:00.888Z,1007.84
2017-06-24T07:26:11.138Z,1007.8
2017-06-24T07:27:21.391Z,1007.8
2017-06-24T07:28:31.625Z,1007.79
2017-06-24T07:29:41.555Z,1007.75
2017-06-24T07:30:51.746Z,1007.74
2017-06-24T07:32:01.986Z,1007.78
2017-06-24T07:33:12.220Z,1007.75
2017-06-24T07:34:22.458Z,1007.76
2017-06-24T07:35:32.698Z,1007.78
2017-06-24T07:36:43.194Z,1007.75
2017-06-24T07:37:53.446Z,1007.75
2017-06-24T07:39:03.693Z,1007.72
2017-06-24T07:40:13.942Z,1007.72
2017-06-24T07:41:24.182Z,1007.76
2017-06-24T07:42:34.362Z,1007.75
2017-06-24T07:43:44.599Z,1007.71
2017-06-24T07:44:54.852Z,1007.74
2017-06-24T07:46:04.791Z,1007.8
2017-06-24T07:47:15.044Z,1007.7
2017-06-24T07:48:25.534Z,1007.7
2017-06-24T07:49:35.786Z,1007.72
2017-06-24T07:50:46.025Z,1007.69
2017-06-24T07:51:55.967Z,1007.78
2017-06-24T07:53:06.205Z,1007.72
2017-06-24T07:54:16.397Z,1007.68
2017-06-24T07:55:26.656Z,1007.72
2017-06-24T07:56:36.590Z,1007.69
2017-06-24T07:57:46.843Z,1007.73
2017-06-24T07:58:56.771Z,1007.73
2017-06-24T08:00:07.263Z,1007.7
2017-06-24T08:01:17.503Z,1007.66
2017-06-24T08:02:27.745Z,1007.7
2017-06-24T08:03:37.987Z,1007.69
2017-06-24T08:04:48.221Z,1007.7
2017-06-24T08:05:58.712Z,1007.66
2017-06-24T08:07:09.001Z,1007.72
2017-06-24T08:08:18.942Z,1007.67
2017-06-24T08:09:28.889Z,1007.62
2017-06-24T08:10:39.132Z,1007.62
2017-06-24T08:11:49.619Z,1007.64
2017-06-24T08:12:59.879Z,1007.59
2017-06-24T08:14:10.111Z,1007.63
2017-06-24T08:15:20.349Z,1007.56
2017-06-24T08:16:30.594Z,1007.59
2017-06-24T08:17:40.796Z,1007.61
2017-06-24T08:18:51.031Z,1007.56
2017-06-24T08:20:01.268Z,1007.54
2017-06-24T08:21:11.234Z,1007.53
2017-06-24T08:22:21.478Z,1007.54
2017-06-24T08:23:31.965Z,1007.54
2017-06-24T08:24:42.194Z,1007.6
2017-06-24T08:25:52.458Z,1007.61
2017-06-24T08:27:02.696Z,1007.56
2017-06-24T08:28:12.933Z,1007.6
2017-06-24T08:29:23.420Z,1007.53
2017-06-24T08:30:33.367Z,1007.51
2017-06-24T08:31:43.608Z,1007.54
2017-06-24T08:32:53.537Z,1007.6
2017-06-24T08:34:03.797Z,1007.53
2017-06-24T08:35:13.987Z,1007.52
2017-06-24T08:36:23.603Z,1007.54
2017-06-24T08:37:33.534Z,1007.49
2017-06-24T08:38:43.784Z,1007.52
2017-06-24T08:39:54.023Z,1007.51
2017-06-24T08:41:04.565Z,1007.57
2017-06-24T08:42:14.498Z,1007.54
2017-06-24T08:43:24.429Z,1007.56
2017-06-24T08:44:34.354Z,1007.53
2017-06-24T08:45:44.615Z,1007.54
2017-06-24T08:46:55.119Z,1007.6
2017-06-24T08:48:05.049Z,1007.57
2017-06-24T08:49:14.987Z,1007.52
2017-06-24T08:50:25.238Z,1007.52
2017-06-24T08:51:35.475Z,1007.46
2017-06-24T08:52:45.961Z,1007.47
2017-06-24T08:53:55.894Z,1007.51
2017-06-24T08:55:06.131Z,1007.47
2017-06-24T08:56:16.073Z,1007.51
2017-06-24T08:57:26.334Z,1007.4
2017-06-24T08:58:36.827Z,1007.48
2017-06-24T08:59:46.770Z,1007.41
2017-06-24T09:00:56.696Z,1007.39
2017-06-24T09:02:06.966Z,1007.44
2017-06-24T09:03:16.894Z,1007.41
2017-06-24T09:04:27.390Z,1007.37
2017-06-24T09:05:37.028Z,1007.41
2017-06-24T09:06:47.278Z,1007.42
2017-06-24T09:07:56.915Z,1007.39
2017-06-24T09:09:07.161Z,1007.43
2017-06-24T09:10:17.648Z,1007.43
2017-06-24T09:11:27.902Z,1007.41
2017-06-24T09:12:37.841Z,1007.38
2017-06-24T09:13:48.096Z,1007.39
2017-06-24T09:14:58.331Z,1007.4
2017-06-24T09:16:08.844Z,1007.41
2017-06-24T09:17:18.792Z,1007.36
2017-06-24T09:18:28.420Z,1007.4
2017-06-24T09:19:38.382Z,1007.35
2017-06-24T09:20:48.620Z,1007.31
2017-06-24T09:21:59.114Z,1007.27
2017-06-24T09:23:09.058Z,1007.26
2017-06-24T09:24:19.310Z,1007.29
2017-06-24T09:25:29.568Z,1007.3
2017-06-24T09:26:39.814Z,1007.32
2017-06-24T09:27:50.315Z,1007.34
2017-06-24T09:29:00.552Z,1007.18
2017-06-24T09:30:10.789Z,1007.25
2017-06-24T09:31:21.034Z,1007.22
2017-06-24T09:32:30.970Z,1007.22
2017-06-24T09:33:41.463Z,1007.22
2017-06-24T09:34:51.704Z,1007.23
2017-06-24T09:36:01.949Z,1007.23
2017-06-24T09:37:11.880Z,1007.18
2017-06-24T09:38:22.115Z,1007.19
2017-06-24T09:39:32.303Z,1007.17
2017-06-24T09:40:41.922Z,1007.2
2017-06-24T09:41:52.171Z,1007.35
2017-06-24T09:43:01.792Z,1007.3
2017-06-24T09:44:11.426Z,1007.28
2017-06-24T09:45:21.616Z,1007.33
2017-06-24T09:46:31.552Z,1007.34
2017-06-24T09:47:41.499Z,1007.23
2017-06-24T09:48:51.754Z,1007.24
2017-06-24T09:50:01.686Z,1007.18
2017-06-24T09:51:11.884Z,1007.19
2017-06-24T09:52:21.814Z,1007.21
2017-06-24T09:53:31.745Z,1007.19
2017-06-24T09:54:41.986Z,1007.17
2017-06-24T09:55:52.228Z,1007.15
2017-06-24T09:57:02.116Z,1007.19
2017-06-24T09:58:12.057Z,1007.16
2017-06-24T09:59:21.986Z,1007.13
2017-06-24T10:00:32.236Z,1007.15
2017-06-24T10:01:42.475Z,1007.14
2017-06-24T10:02:52.969Z,1007.14
2017-06-24T10:04:03.212Z,1007.16
2017-06-24T10:05:13.463Z,1007.22
2017-06-24T10:06:23.411Z,1007.19
2017-06-24T10:07:33.650Z,1007.12
2017-06-24T10:08:44.144Z,1007.21
2017-06-24T10:09:54.387Z,1007.18
2017-06-24T10:11:04.330Z,1007.14
2017-06-24T10:12:14.268Z,1007.11
2017-06-24T10:13:24.504Z,1007.15
2017-06-24T10:14:34.381Z,1007.13
2017-06-24T10:15:44.317Z,1007.16
2017-06-24T10:16:54.260Z,1007.16
2017-06-24T10:18:04.514Z,1007.12
2017-06-24T10:19:14.450Z,1007.11
2017-06-24T10:20:24.940Z,1007.15
2017-06-24T10:21:34.882Z,1007.11
2017-06-24T10:22:45.141Z,1007.24
2017-06-24T10:23:55.389Z,1007.12
2017-06-24T10:25:05.627Z,1007.1
2017-06-24T10:26:15.808Z,1007.02
2017-06-24T10:27:25.747Z,1007.03
2017-06-24T10:28:35.675Z,1007.02
2017-06-24T10:29:45.917Z,1007
2017-06-24T10:30:55.876Z,1007
2017-06-24T10:32:06.370Z,1007.05
2017-06-24T10:33:16.616Z,1007.14
2017-06-24T10:34:26.850Z,1007.03
2017-06-24T10:35:36.783Z,1006.91
2017-06-24T10:36:47.020Z,1006.97
2017-06-24T10:37:57.221Z,1007
2017-06-24T10:39:07.159Z,1007.01
2017-06-24T10:40:17.390Z,1007.02
2017-06-24T10:41:27.650Z,1006.95
2017-06-24T10:42:37.891Z,1006.92
2017-06-24T10:43:48.386Z,1006.93
2017-06-24T10:44:58.025Z,1007
2017-06-24T10:46:08.270Z,1007.08
2017-06-24T10:47:18.505Z,1006.97
2017-06-24T10:48:28.446Z,1006.94
2017-06-24T10:49:38.952Z,1007.08
2017-06-24T10:50:49.193Z,1007.08
2017-06-24T10:51:59.129Z,1006.95
2017-06-24T10:53:09.380Z,1006.97
2017-06-24T10:54:19.309Z,1006.93
2017-06-24T10:55:29.800Z,1006.97
2017-06-24T10:56:40.063Z,1007.07
2017-06-24T10:57:50.082Z,1007.01
2017-06-24T10:58:59.710Z,1007
2017-06-24T11:00:09.975Z,1006.99
2017-06-24T11:01:20.162Z,1006.99
2017-06-24T11:02:30.405Z,1006.96
2017-06-24T11:03:40.664Z,1007.05
2017-06-24T11:04:50.907Z,1007.12
2017-06-24T11:06:01.148Z,1006.97
2017-06-24T11:07:11.655Z,1006.98
2017-06-24T11:08:21.897Z,1006.93
2017-06-24T11:09:32.143Z,1006.95
2017-06-24T11:10:42.398Z,1006.92
2017-06-24T11:11:52.643Z,1006.92
2017-06-24T11:13:03.146Z,1006.89
2017-06-24T11:14:13.393Z,1006.87
2017-06-24T11:15:23.646Z,1006.94
2017-06-24T11:16:33.892Z,1006.96
2017-06-24T11:17:43.825Z,1006.9
2017-06-24T11:18:54.326Z,1006.97
2017-06-24T11:20:04.303Z,1006.91
2017-06-24T11:21:14.245Z,1006.95
2017-06-24T11:22:24.503Z,1006.94
2017-06-24T11:23:34.470Z,1006.92
2017-06-24T11:24:44.971Z,1006.93
2017-06-24T11:25:54.913Z,1006.94
2017-06-24T11:27:05.161Z,1006.88
2017-06-24T11:28:15.401Z,1006.88
2017-06-24T11:29:25.336Z,1006.86
2017-06-24T11:30:35.838Z,1006.87
2017-06-24T11:31:46.088Z,1006.95
2017-06-24T11:32:56.031Z,1006.97
2017-06-24T11:34:05.977Z,1006.83
2017-06-24T11:35:15.907Z,1007.03
2017-06-24T11:36:26.406Z,1006.84
2017-06-24T11:37:36.350Z,1006.92
2017-06-24T11:38:46.589Z,1006.98
2017-06-24T11:39:56.838Z,1007
2017-06-24T11:41:07.118Z,1006.99
2017-06-24T11:42:17.300Z,1007.1
2017-06-24T11:43:27.535Z,1006.95
2017-06-24T11:44:37.784Z,1007.02
2017-06-24T11:45:48.032Z,1007.26
2017-06-24T11:46:57.666Z,1007.01
2017-06-24T11:48:07.847Z,1007
2017-06-24T11:49:17.777Z,1007.05
2017-06-24T11:50:27.414Z,1006.99
2017-06-24T11:51:37.038Z,1007.01
2017-06-24T11:52:46.663Z,1007.05
2017-06-24T11:53:57.169Z,1007.04
2017-06-24T11:55:07.413Z,1007.08
2017-06-24T11:56:17.660Z,1007.03
2017-06-24T11:57:27.922Z,1007.1
2017-06-24T11:58:37.869Z,1007.1
2017-06-24T11:59:47.739Z,1007.09
2017-06-24T12:00:57.980Z,1007.01
2017-06-24T12:02:08.218Z,1007.01
2017-06-24T12:03:18.172Z,1007
2017-06-24T12:04:28.427Z,1007.06
2017-06-24T12:05:38.754Z,1007.08
2017-06-24T12:06:48.683Z,1006.99
2017-06-24T12:07:58.920Z,1007.11
2017-06-24T12:09:09.166Z,1007.02
2017-06-24T12:10:19.112Z,1007.05
2017-06-24T12:11:29.302Z,1007.05
2017-06-24T12:12:38.929Z,1007.12
2017-06-24T12:13:49.176Z,1007.09
2017-06-24T12:14:59.421Z,1007.08
2017-06-24T12:16:09.666Z,1007.22
2017-06-24T12:17:20.171Z,1007.1
2017-06-24T12:18:30.433Z,1007.09
2017-06-24T12:19:40.686Z,1007.15
2017-06-24T12:20:50.930Z,1007.13
2017-06-24T12:22:00.865Z,1007.2
2017-06-24T12:23:11.369Z,1007.12
2017-06-24T12:24:21.640Z,1007.11
2017-06-24T12:25:31.877Z,1007.11
2017-06-24T12:26:42.113Z,1007.06
2017-06-24T12:27:52.369Z,1006.99
2017-06-24T12:29:02.561Z,1007
2017-06-24T12:30:11.879Z,1007.01
2017-06-24T12:31:21.816Z,1007
2017-06-24T12:32:31.763Z,1007.1
2017-06-24T12:33:41.691Z,1007.02
2017-06-24T12:34:51.891Z,1006.97
2017-06-24T12:36:01.828Z,1006.97
2017-06-24T12:37:11.767Z,1007.03
2017-06-24T12:38:22.016Z,1007.02
2017-06-24T12:39:31.649Z,1006.97
2017-06-24T12:40:42.150Z,1006.88
2017-06-24T12:41:52.403Z,1006.9
2017-06-24T12:43:02.347Z,1006.95
2017-06-24T12:44:12.583Z,1006.96
2017-06-24T12:45:22.835Z,1006.92
2017-06-24T12:46:33.330Z,1006.87
2017-06-24T12:47:43.265Z,1006.82
2017-06-24T12:48:53.201Z,1006.87
2017-06-24T12:50:03.135Z,1006.87
2017-06-24T12:51:12.792Z,1006.92
2017-06-24T12:52:22.679Z,1007
2017-06-24T12:53:32.614Z,1006.94
2017-06-24T12:54:42.867Z,1006.88
2017-06-24T12:55:53.119Z,1006.93
2017-06-24T12:57:03.058Z,1006.94
2017-06-24T12:58:13.575Z,1006.89
2017-06-24T12:59:23.504Z,1006.87
2017-06-24T13:00:33.746Z,1006.95
2017-06-24T13:01:43.987Z,1006.82
2017-06-24T13:02:54.243Z,1006.85
2017-06-24T13:04:04.766Z,1006.88
2017-06-24T13:05:15.029Z,1006.96
2017-06-24T13:06:25.300Z,1006.9
2017-06-24T13:07:35.565Z,1006.76
2017-06-24T13:08:45.805Z,1006.8
2017-06-24T13:09:56.352Z,1006.7
2017-06-24T13:11:05.663Z,1006.71
2017-06-24T13:12:15.903Z,1006.76
2017-06-24T13:13:26.140Z,1006.76
2017-06-24T13:14:36.388Z,1006.78
2017-06-24T13:15:46.895Z,1006.8
2017-06-24T13:16:57.155Z,1006.64
2017-06-24T13:18:07.113Z,1006.65
2017-06-24T13:19:17.379Z,1006.6
2017-06-24T13:20:27.332Z,1006.62
2017-06-24T13:21:37.527Z,1006.66
2017-06-24T13:22:47.468Z,1006.66
2017-06-24T13:23:57.709Z,1006.69
2017-06-24T13:25:07.647Z,1006.65
2017-06-24T13:26:17.277Z,1006.81
2017-06-24T13:27:27.491Z,1006.63
2017-06-24T13:28:37.738Z,1006.6
2017-06-24T13:29:47.681Z,1006.54
2017-06-24T13:30:57.920Z,1006.58
2017-06-24T13:32:08.187Z,1006.61
2017-06-24T13:33:18.367Z,1006.65
2017-06-24T13:34:28.331Z,1006.59
2017-06-24T13:35:38.574Z,1006.55
2017-06-24T13:36:48.511Z,1006.59
2017-06-24T13:37:58.770Z,1006.6
2017-06-24T13:39:08.953Z,1006.51
2017-06-24T13:40:19.226Z,1006.48
2017-06-24T13:41:29.463Z,1006.48
2017-06-24T13:42:39.402Z,1006.46
2017-06-24T13:43:49.692Z,1006.49
2017-06-24T13:44:59.893Z,1006.44
2017-06-24T13:46:10.153Z,1006.55
2017-06-24T13:47:20.092Z,1006.64
2017-06-24T13:48:30.347Z,1006.55
2017-06-24T13:49:40.686Z,1006.59
2017-06-24T13:50:50.880Z,1006.41
2017-06-24T13:52:00.844Z,1006.51
2017-06-24T13:53:11.141Z,1006.46
2017-06-24T13:54:21.098Z,1006.38
2017-06-24T13:55:31.362Z,1006.42
2017-06-24T13:56:41.547Z,1006.45
2017-06-24T13:57:51.789Z,1006.41
2017-06-24T13:59:02.272Z,1006.35
2017-06-24T14:00:12.223Z,1006.52
2017-06-24T14:01:22.481Z,1006.35
2017-06-24T14:02:32.986Z,1006.34
2017-06-24T14:03:43.271Z,1006.41
2017-06-24T14:04:53.212Z,1006.38
2017-06-24T14:06:03.156Z,1006.32
2017-06-24T14:07:13.101Z,1006.3
2017-06-24T14:08:22.989Z,1006.37
2017-06-24T14:09:33.261Z,1006.45
2017-06-24T14:10:43.211Z,1006.45
2017-06-24T14:11:53.156Z,1006.45
2017-06-24T14:13:03.405Z,1006.44